Observations for NEWCASTLE, United Kingdom (EGNT)

EGNT 250250Z 24005KT 200V270 9999 FEW020 01/M00 Q1008   
EGNT 250150Z 26011KT 9999 FEW020 01/M00 Q1008   
EGNT 250050Z 26011KT 9999 FEW020 01/M00 Q1007   
EGNT 242350Z 26007KT 9999 FEW020 01/M00 Q1008   
EGNT 242320Z 26008KT 9999 FEW020 01/M00 Q1008   
EGNT 242250Z 27010KT 9999 FEW020 01/M00 Q1008   
EGNT 242220Z 26009KT 9999 FEW020 01/M00 Q1008   
EGNT 242150Z 26009KT 9999 FEW020 01/M00 Q1008   
EGNT 242120Z 24006KT 9999 FEW020 01/M00 Q1007   
EGNT 242050Z 25009KT 9999 FEW020 01/M00 Q1007   
EGNT 242020Z 25007KT 9999 FEW020 02/00 Q1007
EGNT 241950Z 24005KT 9999 FEW020 02/01 Q1008
EGNT 241920Z 24005KT 9999 FEW020 02/01 Q1008
EGNT 241850Z 19003KT 9999 FEW020 02/01 Q1007
EGNT 241820Z 21003KT 9999 FEW025 02/00 Q1007
EGNT 241750Z 25006KT 9999 FEW025 03/01 Q1007
EGNT 241720Z 23007KT 9999 FEW030 04/01 Q1007
EGNT 241650Z 25005KT 9999 FEW030 03/01 Q1007
EGNT 241620Z 24004KT 9999 FEW028 03/00 Q1007
EGNT 241550Z 25008KT 9999 FEW028 04/00 Q1007
EGNT 241520Z 24008KT 9999 FEW029 05/01 Q1006
EGNT 241450Z 24006KT 210V270 9999 FEW029 05/01 Q1006
EGNT 241420Z 25008KT 9999 FEW027 06/01 Q1007
EGNT 241350Z 25011KT 9999 FEW024 06/01 Q1007
EGNT 241320Z 26013KT 9999 FEW010 06/01 Q1006
EGNT 241250Z 26012KT 9999 FEW012 05/01 Q1006
EGNT 241220Z 26011KT 9999 FEW012 05/01 Q1006
EGNT 241150Z 27010KT CAVOK 04/01 Q1007  
EGNT 241120Z 27011KT 9999 FEW015 04/01 Q1007
EGNT 241050Z 27010KT 9999 FEW015 03/01 Q1007
EGNT 241020Z 27011KT 9999 FEW010 03/01 Q1007
EGNT 240950Z 26011KT 9999 FEW008 02/01 Q1006
EGNT 240920Z 27011KT 9999 SCT008 01/01 Q1006
EGNT 240850Z 25006KT 9999 FEW009 02/00 Q1006
EGNT 240820Z 28007KT 9999 SCT012 01/00 Q1006
EGNT 240750Z 26007KT 230V290 9999 FEW012 01/00 Q1005
EGNT 240720Z 24006KT 9999 FEW015 01/00 Q1005
EGNT 240650Z 29006KT 9999 FEW010 01/00 Q1005
EGNT 240620Z 28008KT 9999 FEW010 01/00 Q1005
EGNT 240550Z 26011KT 9999 FEW010 02/01 Q1004
EGNT 240450Z 26009KT 9999 FEW015 02/00 Q1004
EGNT 240350Z 35004KT 290V030 9999 FEW015 01/M00 Q1003   
EGNT 240250Z 27005KT CAVOK 01/M00 Q1002